sensor_id;sensor_type;location;lat;lon;timestamp;pressure;altitude;pressure_sealevel;temperature;humidity
7109;BME280;29079;41.930;25.558;2022-12-05T00:02:01;100831.31;;;6.04;100.00
7109;BME280;29079;41.930;25.558;2022-12-05T00:04:31;100832.09;;;6.06;100.00
7109;BME280;29079;41.930;25.558;2022-12-05T00:07:00;100828.03;;;5.99;100.00
7109;BME280;29079;41.930;25.558;2022-12-05T00:09:31;100828.53;;;6.07;100.00
7109;BME280;29079;41.930;25.558;2022-12-05T00:12:01;100830.03;;;5.94;100.00
7109;BME280;29079;41.930;25.558;2022-12-05T00:14:31;100837.03;;;5.95;100.00
7109;BME280;29079;41.930;25.558;2022-12-05T00:17:01;100834.25;;;5.98;100.00
7109;BME280;29079;41.930;25.558;2022-12-05T00:19:31;100828.16;;;5.96;100.00
7109;BME280;29079;41.930;25.558;2022-12-05T00:22:01;100839.56;;;5.98;100.00
7109;BME280;29079;41.930;25.558;2022-12-05T00:24:32;100841.47;;;5.95;100.00
7109;BME280;29079;41.930;25.558;2022-12-05T00:27:01;100842.19;;;5.98;100.00
7109;BME280;29079;41.930;25.558;2022-12-05T00:29:31;100835.22;;;5.97;100.00
7109;BME280;29079;41.930;25.558;2022-12-05T00:32:00;100839.75;;;5.93;100.00
7109;BME280;29079;41.930;25.558;2022-12-05T00:34:30;100841.41;;;5.96;100.00
7109;BME280;29079;41.930;25.558;2022-12-05T00:37:00;100836.81;;;6.00;100.00
7109;BME280;29079;41.930;25.558;2022-12-05T00:39:29;100837.09;;;5.93;100.00
7109;BME280;29079;41.930;25.558;2022-12-05T00:42:00;100835.25;;;5.96;100.00
7109;BME280;29079;41.930;25.558;2022-12-05T00:44:30;100836.91;;;5.98;100.00
7109;BME280;29079;41.930;25.558;2022-12-05T00:46:59;100836.94;;;5.97;100.00
7109;BME280;29079;41.930;25.558;2022-12-05T00:49:29;100827.38;;;5.94;100.00
7109;BME280;29079;41.930;25.558;2022-12-05T00:51:58;100816.69;;;5.96;100.00
7109;BME280;29079;41.930;25.558;2022-12-05T00:54:28;100829.00;;;5.97;100.00
7109;BME280;29079;41.930;25.558;2022-12-05T00:56:58;100824.66;;;5.96;100.00
7109;BME280;29079;41.930;25.558;2022-12-05T00:59:29;100822.66;;;6.01;100.00
7109;BME280;29079;41.930;25.558;2022-12-05T01:01:59;100819.34;;;5.96;100.00
7109;BME280;29079;41.930;25.558;2022-12-05T01:04:28;100812.97;;;6.00;100.00
7109;BME280;29079;41.930;25.558;2022-12-05T01:06:58;100825.16;;;6.04;100.00
7109;BME280;29079;41.930;25.558;2022-12-05T01:09:27;100815.50;;;6.03;100.00
7109;BME280;29079;41.930;25.558;2022-12-05T01:11:58;100818.75;;;6.08;100.00
7109;BME280;29079;41.930;25.558;2022-12-05T01:14:30;100820.25;;;6.14;100.00
7109;BME280;29079;41.930;25.558;2022-12-05T01:17:00;100823.84;;;6.13;100.00
7109;BME280;29079;41.930;25.558;2022-12-05T01:19:30;100820.19;;;5.96;100.00
7109;BME280;29079;41.930;25.558;2022-12-05T01:22:00;100815.75;;;5.97;100.00
7109;BME280;29079;41.930;25.558;2022-12-05T01:24:30;100810.41;;;5.98;100.00
7109;BME280;29079;41.930;25.558;2022-12-05T01:27:00;100814.13;;;5.94;100.00
7109;BME280;29079;41.930;25.558;2022-12-05T01:29:31;100820.28;;;5.95;100.00
7109;BME280;29079;41.930;25.558;2022-12-05T01:32:00;100806.19;;;5.94;100.00
7109;BME280;29079;41.930;25.558;2022-12-05T01:34:30;100815.75;;;5.97;100.00
7109;BME280;29079;41.930;25.558;2022-12-05T01:37:00;100814.22;;;5.92;100.00
7109;BME280;29079;41.930;25.558;2022-12-05T01:39:29;100813.56;;;5.87;100.00
7109;BME280;29079;41.930;25.558;2022-12-05T01:41:59;100800.88;;;5.94;100.00
7109;BME280;29079;41.930;25.558;2022-12-05T01:47:18;100808.09;;;5.90;100.00
7109;BME280;29079;41.930;25.558;2022-12-05T01:49:48;100808.25;;;5.87;100.00
7109;BME280;29079;41.930;25.558;2022-12-05T01:52:19;100804.47;;;5.93;100.00
7109;BME280;29079;41.930;25.558;2022-12-05T01:54:50;100802.72;;;5.92;100.00
7109;BME280;29079;41.930;25.558;2022-12-05T01:57:22;100799.31;;;5.90;100.00
7109;BME280;29079;41.930;25.558;2022-12-05T01:59:54;100796.59;;;5.91;100.00
7109;BME280;29079;41.930;25.558;2022-12-05T02:02:29;100797.59;;;5.89;100.00
7109;BME280;29079;41.930;25.558;2022-12-05T02:05:00;100795.47;;;5.97;100.00
7109;BME280;29079;41.930;25.558;2022-12-05T02:07:31;100791.22;;;5.93;100.00
7109;BME280;29079;41.930;25.558;2022-12-05T02:10:02;100785.91;;;5.93;100.00
7109;BME280;29079;41.930;25.558;2022-12-05T02:12:33;100782.69;;;5.86;100.00
7109;BME280;29079;41.930;25.558;2022-12-05T02:15:16;100780.91;;;5.87;100.00
7109;BME280;29079;41.930;25.558;2022-12-05T02:17:53;100767.50;;;5.90;100.00
7109;BME280;29079;41.930;25.558;2022-12-05T02:20:29;100773.59;;;5.92;100.00
7109;BME280;29079;41.930;25.558;2022-12-05T02:23:19;100768.44;;;5.89;100.00
7109;BME280;29079;41.930;25.558;2022-12-05T02:28:52;100771.84;;;5.91;100.00
7109;BME280;29079;41.930;25.558;2022-12-05T02:31:28;100772.97;;;5.87;100.00
7109;BME280;29079;41.930;25.558;2022-12-05T02:34:04;100772.16;;;5.85;100.00
7109;BME280;29079;41.930;25.558;2022-12-05T02:36:37;100770.41;;;5.85;100.00
7109;BME280;29079;41.930;25.558;2022-12-05T02:39:11;100762.97;;;5.92;100.00
7109;BME280;29079;41.930;25.558;2022-12-05T02:41:46;100763.13;;;5.89;100.00
7109;BME280;29079;41.930;25.558;2022-12-05T02:44:20;100769.44;;;5.86;100.00
7109;BME280;29079;41.930;25.558;2022-12-05T02:46:53;100771.84;;;5.91;100.00
7109;BME280;29079;41.930;25.558;2022-12-05T02:49:24;100764.22;;;5.85;100.00
7109;BME280;29079;41.930;25.558;2022-12-05T02:51:55;100765.31;;;5.81;100.00
7109;BME280;29079;41.930;25.558;2022-12-05T02:54:26;100765.09;;;5.85;100.00
7109;BME280;29079;41.930;25.558;2022-12-05T02:56:58;100773.97;;;5.84;100.00
7109;BME280;29079;41.930;25.558;2022-12-05T02:59:28;100774.50;;;5.91;100.00
7109;BME280;29079;41.930;25.558;2022-12-05T03:01:59;100779.81;;;5.91;100.00
7109;BME280;29079;41.930;25.558;2022-12-05T03:04:28;100781.53;;;5.92;100.00
7109;BME280;29079;41.930;25.558;2022-12-05T03:06:59;100769.38;;;5.88;100.00
7109;BME280;29079;41.930;25.558;2022-12-05T03:09:32;100778.81;;;5.93;100.00
7109;BME280;29079;41.930;25.558;2022-12-05T03:12:05;100778.97;;;5.90;100.00
7109;BME280;29079;41.930;25.558;2022-12-05T03:14:38;100784.25;;;5.90;100.00
7109;BME280;29079;41.930;25.558;2022-12-05T03:17:12;100777.03;;;5.94;100.00
7109;BME280;29079;41.930;25.558;2022-12-05T03:19:44;100784.50;;;5.86;100.00
7109;BME280;29079;41.930;25.558;2022-12-05T03:22:17;100780.91;;;5.87;100.00
7109;BME280;29079;41.930;25.558;2022-12-05T03:24:48;100777.38;;;5.86;100.00
7109;BME280;29079;41.930;25.558;2022-12-05T03:27:20;100776.47;;;5.87;100.00
7109;BME280;29079;41.930;25.558;2022-12-05T03:29:52;100761.56;;;5.85;100.00
7109;BME280;29079;41.930;25.558;2022-12-05T03:32:26;100760.88;;;5.81;100.00
7109;BME280;29079;41.930;25.558;2022-12-05T03:35:03;100751.06;;;5.83;100.00
7109;BME280;29079;41.930;25.558;2022-12-05T03:37:36;100762.50;;;5.84;100.00
7109;BME280;29079;41.930;25.558;2022-12-05T03:40:10;100758.38;;;5.78;100.00
7109;BME280;29079;41.930;25.558;2022-12-05T03:42:43;100763.75;;;5.77;100.00
7109;BME280;29079;41.930;25.558;2022-12-05T03:45:15;100762.81;;;5.78;100.00
7109;BME280;29079;41.930;25.558;2022-12-05T03:47:51;100756.75;;;5.75;100.00
7109;BME280;29079;41.930;25.558;2022-12-05T03:50:26;100767.50;;;5.72;100.00
7109;BME280;29079;41.930;25.558;2022-12-05T03:52:58;100774.34;;;5.77;100.00
7109;BME280;29079;41.930;25.558;2022-12-05T03:55:49;100771.72;;;5.77;100.00
7109;BME280;29079;41.930;25.558;2022-12-05T03:58:22;100769.06;;;5.77;100.00
7109;BME280;29079;41.930;25.558;2022-12-05T04:00:54;100769.75;;;5.80;100.00
7109;BME280;29079;41.930;25.558;2022-12-05T04:03:27;100775.28;;;5.75;100.00
7109;BME280;29079;41.930;25.558;2022-12-05T04:06:09;100775.38;;;5.74;100.00
7109;BME280;29079;41.930;25.558;2022-12-05T04:08:41;100770.00;;;5.75;100.00
7109;BME280;29079;41.930;25.558;2022-12-05T04:11:13;100761.25;;;5.73;100.00
7109;BME280;29079;41.930;25.558;2022-12-05T04:13:45;100751.59;;;5.72;100.00
7109;BME280;29079;41.930;25.558;2022-12-05T04:16:19;100754.25;;;5.72;100.00
7109;BME280;29079;41.930;25.558;2022-12-05T04:19:09;100762.19;;;5.72;100.00
7109;BME280;29079;41.930;25.558;2022-12-05T04:21:43;100751.69;;;5.71;100.00
7109;BME280;29079;41.930;25.558;2022-12-05T04:24:14;100751.69;;;5.71;100.00
7109;BME280;29079;41.930;25.558;2022-12-05T04:27:05;100756.91;;;5.72;100.00
7109;BME280;29079;41.930;25.558;2022-12-05T04:29:39;100765.47;;;5.78;100.00
7109;BME280;29079;41.930;25.558;2022-12-05T04:32:11;100777.47;;;5.85;100.00
7109;BME280;29079;41.930;25.558;2022-12-05T04:34:44;100783.41;;;5.90;100.00
7109;BME280;29079;41.930;25.558;2022-12-05T04:37:16;100775.69;;;5.85;100.00
7109;BME280;29079;41.930;25.558;2022-12-05T04:39:49;100780.13;;;5.85;100.00
7109;BME280;29079;41.930;25.558;2022-12-05T04:42:22;100777.13;;;5.73;100.00
7109;BME280;29079;41.930;25.558;2022-12-05T04:44:56;100780.44;;;5.79;100.00
7109;BME280;29079;41.930;25.558;2022-12-05T04:47:27;100774.06;;;5.83;100.00
7109;BME280;29079;41.930;25.558;2022-12-05T04:50:01;100775.13;;;5.79;100.00
7109;BME280;29079;41.930;25.558;2022-12-05T04:52:31;100781.69;;;5.89;100.00
7109;BME280;29079;41.930;25.558;2022-12-05T04:55:03;100787.63;;;5.94;100.00
7109;BME280;29079;41.930;25.558;2022-12-05T04:57:34;100787.56;;;5.96;100.00
7109;BME280;29079;41.930;25.558;2022-12-05T05:00:05;100794.78;;;5.92;100.00
7109;BME280;29079;41.930;25.558;2022-12-05T05:02:36;100789.06;;;5.82;100.00
7109;BME280;29079;41.930;25.558;2022-12-05T05:05:10;100792.59;;;5.83;100.00
7109;BME280;29079;41.930;25.558;2022-12-05T05:07:43;100795.69;;;5.91;100.00
7109;BME280;29079;41.930;25.558;2022-12-05T05:10:15;100793.22;;;5.88;100.00
7109;BME280;29079;41.930;25.558;2022-12-05T05:12:46;100793.94;;;5.91;100.00
7109;BME280;29079;41.930;25.558;2022-12-05T05:15:16;100792.22;;;5.90;100.00
7109;BME280;29079;41.930;25.558;2022-12-05T05:17:46;100794.16;;;5.87;100.00
7109;BME280;29079;41.930;25.558;2022-12-05T05:20:17;100793.59;;;5.80;100.00
7109;BME280;29079;41.930;25.558;2022-12-05T05:22:52;100803.13;;;5.84;100.00
7109;BME280;29079;41.930;25.558;2022-12-05T05:25:23;100802.66;;;5.93;100.00
7109;BME280;29079;41.930;25.558;2022-12-05T05:27:53;100801.66;;;5.96;100.00
7109;BME280;29079;41.930;25.558;2022-12-05T05:30:23;100797.88;;;6.02;100.00
7109;BME280;29079;41.930;25.558;2022-12-05T05:32:53;100797.03;;;6.01;100.00
7109;BME280;29079;41.930;25.558;2022-12-05T05:35:24;100793.56;;;5.99;100.00
7109;BME280;29079;41.930;25.558;2022-12-05T05:37:53;100789.41;;;5.93;100.00
7109;BME280;29079;41.930;25.558;2022-12-05T05:40:23;100795.22;;;6.02;100.00
7109;BME280;29079;41.930;25.558;2022-12-05T05:42:53;100793.34;;;6.04;100.00
7109;BME280;29079;41.930;25.558;2022-12-05T05:45:22;100792.50;;;6.03;100.00
7109;BME280;29079;41.930;25.558;2022-12-05T05:47:52;100790.41;;;5.91;100.00
7109;BME280;29079;41.930;25.558;2022-12-05T05:50:22;100787.44;;;5.99;100.00
7109;BME280;29079;41.930;25.558;2022-12-05T05:52:53;100788.91;;;6.04;100.00
7109;BME280;29079;41.930;25.558;2022-12-05T05:55:22;100780.81;;;6.07;100.00
7109;BME280;29079;41.930;25.558;2022-12-05T05:57:52;100783.53;;;6.06;100.00
7109;BME280;29079;41.930;25.558;2022-12-05T06:00:22;100773.94;;;6.03;100.00
7109;BME280;29079;41.930;25.558;2022-12-05T06:02:51;100781.97;;;6.02;100.00
7109;BME280;29079;41.930;25.558;2022-12-05T06:05:21;100784.38;;;6.06;100.00
7109;BME280;29079;41.930;25.558;2022-12-05T06:07:52;100794.16;;;6.06;100.00
7109;BME280;29079;41.930;25.558;2022-12-05T06:10:22;100791.56;;;6.04;100.00
7109;BME280;29079;41.930;25.558;2022-12-05T06:12:52;100792.25;;;6.08;100.00
7109;BME280;29079;41.930;25.558;2022-12-05T06:15:22;100796.00;;;6.04;100.00
7109;BME280;29079;41.930;25.558;2022-12-05T06:17:52;100798.38;;;6.10;100.00
7109;BME280;29079;41.930;25.558;2022-12-05T06:20:21;100795.47;;;6.15;100.00
7109;BME280;29079;41.930;25.558;2022-12-05T06:22:52;100801.22;;;6.05;100.00
7109;BME280;29079;41.930;25.558;2022-12-05T06:25:22;100798.28;;;6.12;100.00
7109;BME280;29079;41.930;25.558;2022-12-05T06:27:51;100795.56;;;6.13;100.00
7109;BME280;29079;41.930;25.558;2022-12-05T06:30:21;100802.44;;;6.17;100.00
7109;BME280;29079;41.930;25.558;2022-12-05T06:32:51;100798.97;;;6.15;100.00
7109;BME280;29079;41.930;25.558;2022-12-05T06:35:21;100809.25;;;6.21;100.00
7109;BME280;29079;41.930;25.558;2022-12-05T06:37:50;100813.41;;;6.27;100.00
7109;BME280;29079;41.930;25.558;2022-12-05T06:40:22;100825.72;;;6.28;100.00
7109;BME280;29079;41.930;25.558;2022-12-05T06:42:52;100818.41;;;6.33;100.00
7109;BME280;29079;41.930;25.558;2022-12-05T06:45:21;100821.84;;;6.35;100.00
7109;BME280;29079;41.930;25.558;2022-12-05T06:47:51;100818.69;;;6.27;100.00
7109;BME280;29079;41.930;25.558;2022-12-05T06:50:21;100813.41;;;6.27;100.00
7109;BME280;29079;41.930;25.558;2022-12-05T06:52:50;100806.53;;;6.23;100.00
7109;BME280;29079;41.930;25.558;2022-12-05T06:55:20;100811.91;;;6.21;100.00
7109;BME280;29079;41.930;25.558;2022-12-05T06:57:51;100821.28;;;6.28;100.00
7109;BME280;29079;41.930;25.558;2022-12-05T07:00:20;100827.47;;;6.29;100.00
7109;BME280;29079;41.930;25.558;2022-12-05T07:03:09;100833.03;;;6.23;100.00
7109;BME280;29079;41.930;25.558;2022-12-05T07:05:39;100828.06;;;6.17;100.00
7109;BME280;29079;41.930;25.558;2022-12-05T07:08:08;100834.16;;;6.19;100.00
7109;BME280;29079;41.930;25.558;2022-12-05T07:10:38;100833.03;;;6.23;100.00
7109;BME280;29079;41.930;25.558;2022-12-05T07:13:09;100845.59;;;6.19;100.00
7109;BME280;29079;41.930;25.558;2022-12-05T07:15:44;100837.81;;;6.16;100.00
7109;BME280;29079;41.930;25.558;2022-12-05T07:18:14;100840.00;;;6.25;100.00
7109;BME280;29079;41.930;25.558;2022-12-05T07:20:44;100843.13;;;6.34;100.00
7109;BME280;29079;41.930;25.558;2022-12-05T07:23:39;100845.31;;;6.43;100.00
7109;BME280;29079;41.930;25.558;2022-12-05T07:26:10;100848.03;;;6.41;100.00
7109;BME280;29079;41.930;25.558;2022-12-05T07:28:41;100845.16;;;6.46;100.00
7109;BME280;29079;41.930;25.558;2022-12-05T07:31:13;100848.84;;;6.43;100.00
7109;BME280;29079;41.930;25.558;2022-12-05T07:33:43;100846.88;;;6.47;100.00
7109;BME280;29079;41.930;25.558;2022-12-05T07:36:14;100847.78;;;6.46;100.00
7109;BME280;29079;41.930;25.558;2022-12-05T07:38:43;100852.88;;;6.51;100.00
7109;BME280;29079;41.930;25.558;2022-12-05T07:41:13;100855.38;;;6.54;100.00
7109;BME280;29079;41.930;25.558;2022-12-05T07:43:46;100852.88;;;6.51;100.00
7109;BME280;29079;41.930;25.558;2022-12-05T07:46:16;100857.00;;;6.56;100.00
7109;BME280;29079;41.930;25.558;2022-12-05T07:48:46;100862.53;;;6.69;100.00
7109;BME280;29079;41.930;25.558;2022-12-05T07:51:16;100862.09;;;6.78;100.00
7109;BME280;29079;41.930;25.558;2022-12-05T07:53:46;100856.44;;;6.85;100.00
7109;BME280;29079;41.930;25.558;2022-12-05T07:56:16;100861.44;;;6.91;100.00
7109;BME280;29079;41.930;25.558;2022-12-05T07:58:48;100863.75;;;6.97;100.00
7109;BME280;29079;41.930;25.558;2022-12-05T08:01:19;100857.69;;;6.95;100.00
7109;BME280;29079;41.930;25.558;2022-12-05T08:03:51;100855.13;;;6.93;100.00
7109;BME280;29079;41.930;25.558;2022-12-05T08:06:21;100855.28;;;6.90;100.00
7109;BME280;29079;41.930;25.558;2022-12-05T08:08:51;100860.97;;;7.00;100.00
7109;BME280;29079;41.930;25.558;2022-12-05T08:11:22;100857.13;;;7.06;100.00
7109;BME280;29079;41.930;25.558;2022-12-05T08:13:54;100854.63;;;7.03;98.54
7109;BME280;29079;41.930;25.558;2022-12-05T08:16:26;100852.03;;;7.01;98.16
7109;BME280;29079;41.930;25.558;2022-12-05T08:18:56;100856.72;;;7.13;97.78
7109;BME280;29079;41.930;25.558;2022-12-05T08:21:26;100860.31;;;7.12;96.98
7109;BME280;29079;41.930;25.558;2022-12-05T08:23:57;100844.28;;;7.14;97.15
7109;BME280;29079;41.930;25.558;2022-12-05T08:26:27;100850.47;;;7.14;96.40
7109;BME280;29079;41.930;25.558;2022-12-05T08:28:59;100850.72;;;7.26;96.87
7109;BME280;29079;41.930;25.558;2022-12-05T08:31:31;100840.66;;;7.32;96.58
7109;BME280;29079;41.930;25.558;2022-12-05T08:34:01;100841.66;;;7.30;96.12
7109;BME280;29079;41.930;25.558;2022-12-05T08:36:30;100844.06;;;7.35;96.80
7109;BME280;29079;41.930;25.558;2022-12-05T08:39:02;100844.78;;;7.38;96.25
7109;BME280;29079;41.930;25.558;2022-12-05T08:41:32;100845.78;;;7.36;96.31
7109;BME280;29079;41.930;25.558;2022-12-05T08:44:04;100847.00;;;7.46;96.14
7109;BME280;29079;41.930;25.558;2022-12-05T08:46:36;100843.06;;;7.37;95.43
7109;BME280;29079;41.930;25.558;2022-12-05T08:49:06;100829.69;;;7.39;95.24
7109;BME280;29079;41.930;25.558;2022-12-05T08:51:36;100834.59;;;7.46;95.23
7109;BME280;29079;41.930;25.558;2022-12-05T08:54:05;100840.50;;;7.52;95.27
7109;BME280;29079;41.930;25.558;2022-12-05T08:56:35;100834.84;;;7.58;95.07
7109;BME280;29079;41.930;25.558;2022-12-05T08:59:07;100840.41;;;7.69;94.51
7109;BME280;29079;41.930;25.558;2022-12-05T09:01:36;100835.38;;;7.64;94.59
7109;BME280;29079;41.930;25.558;2022-12-05T09:04:07;100837.00;;;7.67;93.93
7109;BME280;29079;41.930;25.558;2022-12-05T09:06:37;100832.44;;;7.69;93.75
7109;BME280;29079;41.930;25.558;2022-12-05T09:09:08;100834.00;;;7.73;93.77
7109;BME280;29079;41.930;25.558;2022-12-05T09:11:40;100828.22;;;7.81;93.02
7109;BME280;29079;41.930;25.558;2022-12-05T09:14:15;100824.19;;;7.90;91.81
7109;BME280;29079;41.930;25.558;2022-12-05T09:16:46;100809.31;;;7.87;91.30
7109;BME280;29079;41.930;25.558;2022-12-05T09:19:16;100809.97;;;7.91;91.65
7109;BME280;29079;41.930;25.558;2022-12-05T09:21:48;100810.50;;;7.97;91.90
7109;BME280;29079;41.930;25.558;2022-12-05T09:24:17;100803.81;;;7.90;90.67
7109;BME280;29079;41.930;25.558;2022-12-05T09:26:47;100805.50;;;7.91;91.00
7109;BME280;29079;41.930;25.558;2022-12-05T09:29:18;100805.09;;;7.83;90.79
7109;BME280;29079;41.930;25.558;2022-12-05T09:31:48;100805.34;;;7.78;91.28
7109;BME280;29079;41.930;25.558;2022-12-05T09:34:19;100799.19;;;7.78;90.38
7109;BME280;29079;41.930;25.558;2022-12-05T09:36:48;100794.38;;;7.84;91.41
7109;BME280;29079;41.930;25.558;2022-12-05T09:39:37;100792.47;;;7.87;91.09
7109;BME280;29079;41.930;25.558;2022-12-05T09:44:57;100781.84;;;7.87;91.71
7109;BME280;29079;41.930;25.558;2022-12-05T09:47:35;100787.34;;;7.83;91.48
7109;BME280;29079;41.930;25.558;2022-12-05T09:50:12;100770.56;;;7.83;90.65
7109;BME280;29079;41.930;25.558;2022-12-05T09:52:45;100781.28;;;7.81;89.76
7109;BME280;29079;41.930;25.558;2022-12-05T09:55:21;100769.50;;;7.85;90.05
7109;BME280;29079;41.930;25.558;2022-12-05T09:57:51;100766.94;;;7.84;89.67
7109;BME280;29079;41.930;25.558;2022-12-05T10:00:24;100768.75;;;7.83;89.41
7109;BME280;29079;41.930;25.558;2022-12-05T10:02:56;100768.00;;;7.81;89.54
7109;BME280;29079;41.930;25.558;2022-12-05T10:05:33;100774.25;;;7.80;88.38
7109;BME280;29079;41.930;25.558;2022-12-05T10:08:06;100759.22;;;7.79;88.24
7109;BME280;29079;41.930;25.558;2022-12-05T10:10:43;100765.25;;;7.83;88.04
7109;BME280;29079;41.930;25.558;2022-12-05T10:13:20;100763.34;;;7.85;88.51
7109;BME280;29079;41.930;25.558;2022-12-05T10:15:54;100765.34;;;7.81;88.94
7109;BME280;29079;41.930;25.558;2022-12-05T10:18:29;100762.81;;;7.78;87.66
7109;BME280;29079;41.930;25.558;2022-12-05T10:21:03;100753.81;;;7.81;88.47
7109;BME280;29079;41.930;25.558;2022-12-05T10:23:34;100755.53;;;7.82;87.98
7109;BME280;29079;41.930;25.558;2022-12-05T10:26:26;100755.09;;;7.90;88.39
7109;BME280;29079;41.930;25.558;2022-12-05T10:28:59;100756.72;;;7.92;87.20
7109;BME280;29079;41.930;25.558;2022-12-05T10:31:37;100752.09;;;7.96;87.65
7109;BME280;29079;41.930;25.558;2022-12-05T10:34:10;100745.63;;;8.00;86.65
7109;BME280;29079;41.930;25.558;2022-12-05T10:36:43;100749.41;;;8.12;88.22
7109;BME280;29079;41.930;25.558;2022-12-05T10:39:19;100744.84;;;8.14;87.79
7109;BME280;29079;41.930;25.558;2022-12-05T10:41:48;100743.44;;;8.23;86.99
7109;BME280;29079;41.930;25.558;2022-12-05T10:44:18;100741.97;;;8.17;86.14
7109;BME280;29079;41.930;25.558;2022-12-05T10:46:49;100742.81;;;8.17;85.52
7109;BME280;29079;41.930;25.558;2022-12-05T10:49:19;100741.97;;;8.17;85.53
7109;BME280;29079;41.930;25.558;2022-12-05T10:51:49;100743.09;;;8.13;86.33
7109;BME280;29079;41.930;25.558;2022-12-05T10:54:19;100732.47;;;8.13;86.65
7109;BME280;29079;41.930;25.558;2022-12-05T10:56:50;100734.69;;;8.21;87.62
7109;BME280;29079;41.930;25.558;2022-12-05T10:59:21;100730.31;;;8.19;85.94
7109;BME280;29079;41.930;25.558;2022-12-05T11:01:54;100728.50;;;8.20;86.01
7109;BME280;29079;41.930;25.558;2022-12-05T11:04:28;100730.97;;;8.23;86.21
7109;BME280;29079;41.930;25.558;2022-12-05T11:06:59;100722.91;;;8.25;85.81
7109;BME280;29079;41.930;25.558;2022-12-05T11:09:30;100723.97;;;8.22;86.89
7109;BME280;29079;41.930;25.558;2022-12-05T11:14:53;100716.44;;;8.14;86.69
7109;BME280;29079;41.930;25.558;2022-12-05T11:17:26;100720.91;;;8.14;86.75
7109;BME280;29079;41.930;25.558;2022-12-05T11:19:58;100713.00;;;8.12;87.36
7109;BME280;29079;41.930;25.558;2022-12-05T11:22:31;100709.41;;;8.13;87.73
7109;BME280;29079;41.930;25.558;2022-12-05T11:25:19;100709.41;;;8.13;87.25
7109;BME280;29079;41.930;25.558;2022-12-05T11:27:51;100702.94;;;8.03;87.27
7109;BME280;29079;41.930;25.558;2022-12-05T11:30:28;100703.59;;;8.07;87.33
7109;BME280;29079;41.930;25.558;2022-12-05T11:35:43;100699.72;;;8.12;87.81
7109;BME280;29079;41.930;25.558;2022-12-05T11:38:14;100700.03;;;8.22;88.19
7109;BME280;29079;41.930;25.558;2022-12-05T11:40:46;100685.84;;;8.22;87.09
7109;BME280;29079;41.930;25.558;2022-12-05T11:43:35;100682.91;;;8.26;87.71
7109;BME280;29079;41.930;25.558;2022-12-05T11:46:08;100687.88;;;8.18;87.72
7109;BME280;29079;41.930;25.558;2022-12-05T11:48:49;100682.44;;;8.19;86.30
7109;BME280;29079;41.930;25.558;2022-12-05T11:51:29;100688.31;;;8.25;85.83
7109;BME280;29079;41.930;25.558;2022-12-05T11:54:17;100683.88;;;8.25;85.57
7109;BME280;29079;41.930;25.558;2022-12-05T11:57:12;100679.19;;;8.14;85.11
7109;BME280;29079;41.930;25.558;2022-12-05T11:59:59;100672.28;;;8.12;84.96
7109;BME280;29079;41.930;25.558;2022-12-05T12:02:33;100672.72;;;8.04;84.97
7109;BME280;29079;41.930;25.558;2022-12-05T12:05:10;100675.94;;;7.95;84.95
7109;BME280;29079;41.930;25.558;2022-12-05T12:07:50;100670.34;;;7.99;84.33
7109;BME280;29079;41.930;25.558;2022-12-05T12:10:25;100665.31;;;7.95;84.70
7109;BME280;29079;41.930;25.558;2022-12-05T12:13:10;100672.34;;;7.96;85.17
7109;BME280;29079;41.930;25.558;2022-12-05T12:15:46;100673.94;;;7.98;85.00
7109;BME280;29079;41.930;25.558;2022-12-05T12:18:23;;;;8.00;
7109;BME280;29079;41.930;25.558;2022-12-05T12:21:00;100670.44;;;7.98;86.54
7109;BME280;29079;41.930;25.558;2022-12-05T12:23:39;100663.22;;;8.00;86.10
7109;BME280;29079;41.930;25.558;2022-12-05T12:26:12;100670.16;;;8.02;86.32
7109;BME280;29079;41.930;25.558;2022-12-05T12:28:44;100662.19;;;8.02;85.35
7109;BME280;29079;41.930;25.558;2022-12-05T12:31:18;100661.91;;;8.07;85.48
7109;BME280;29079;41.930;25.558;2022-12-05T12:33:53;100669.69;;;8.10;85.78
7109;BME280;29079;41.930;25.558;2022-12-05T12:36:26;100655.56;;;8.10;86.01
7109;BME280;29079;41.930;25.558;2022-12-05T12:39:03;100651.84;;;8.12;85.78
7109;BME280;29079;41.930;25.558;2022-12-05T12:41:40;100656.25;;;8.13;86.05
7109;BME280;29079;41.930;25.558;2022-12-05T12:44:17;100653.59;;;8.13;85.56
7109;BME280;29079;41.930;25.558;2022-12-05T12:46:51;100655.47;;;8.11;85.57
7109;BME280;29079;41.930;25.558;2022-12-05T12:49:26;100648.41;;;8.10;85.26
7109;BME280;29079;41.930;25.558;2022-12-05T12:52:03;100644.44;;;8.03;85.53
7109;BME280;29079;41.930;25.558;2022-12-05T12:54:47;100647.97;;;8.04;85.31
7109;BME280;29079;41.930;25.558;2022-12-05T12:57:38;100643.47;;;8.04;85.80
7109;BME280;29079;41.930;25.558;2022-12-05T13:00:14;100646.94;;;8.06;85.62
7109;BME280;29079;41.930;25.558;2022-12-05T13:02:48;100641.50;;;8.08;86.79
7109;BME280;29079;41.930;25.558;2022-12-05T13:05:20;100645.19;;;8.05;86.26
7109;BME280;29079;41.930;25.558;2022-12-05T13:07:52;100647.97;;;8.04;86.14
7109;BME280;29079;41.930;25.558;2022-12-05T13:10:26;100645.94;;;8.07;87.27
7109;BME280;29079;41.930;25.558;2022-12-05T13:12:57;100649.50;;;8.08;86.59
7109;BME280;29079;41.930;25.558;2022-12-05T13:15:30;100649.59;;;8.06;86.09
7109;BME280;29079;41.930;25.558;2022-12-05T13:18:02;100642.44;;;8.07;86.12
7109;BME280;29079;41.930;25.558;2022-12-05T13:20:33;100645.09;;;8.07;86.02
7109;BME280;29079;41.930;25.558;2022-12-05T13:23:04;100637.31;;;8.04;85.57
7109;BME280;29079;41.930;25.558;2022-12-05T13:25:37;100639.88;;;8.05;86.90
7109;BME280;29079;41.930;25.558;2022-12-05T13:28:15;100642.72;;;8.02;86.09
7109;BME280;29079;41.930;25.558;2022-12-05T13:30:53;100640.06;;;8.02;86.35
7109;BME280;29079;41.930;25.558;2022-12-05T13:33:29;100635.03;;;7.97;85.47
7109;BME280;29079;41.930;25.558;2022-12-05T13:36:03;100628.00;;;7.96;84.49
7109;BME280;29079;41.930;25.558;2022-12-05T13:38:54;100632.38;;;7.97;85.38